createdAt,value
2019-03-10T10:42:35.538Z,63.84
2019-03-10T10:45:16.487Z,63.91
2019-03-10T10:47:57.460Z,64.51
2019-03-10T10:50:38.453Z,64.63
2019-03-10T10:53:21.402Z,64.88
2019-03-10T10:56:00.824Z,65.47
2019-03-10T10:58:41.464Z,66.52
2019-03-10T11:01:22.431Z,66.98
2019-03-10T11:04:03.114Z,67.89
2019-03-10T11:06:44.213Z,69.03
2019-03-10T11:09:25.139Z,69.02
2019-03-10T11:12:06.043Z,68.96
2019-03-10T11:14:46.803Z,68.86
2019-03-10T11:17:27.282Z,69.15
2019-03-10T11:20:07.820Z,69.11
2019-03-10T11:22:49.012Z,68.81
2019-03-10T11:25:29.884Z,69.32
2019-03-10T11:28:10.412Z,69.74
2019-03-10T11:30:50.597Z,69.73
2019-03-10T11:33:30.942Z,69.47
2019-03-10T11:36:10.829Z,69.65
2019-03-10T11:38:51.401Z,69.64
2019-03-10T11:41:34.069Z,69.51
2019-03-10T11:44:12.495Z,69.70
2019-03-10T11:46:52.541Z,69.66
2019-03-10T11:49:33.353Z,70.43
2019-03-10T11:52:14.209Z,70.29
2019-03-10T11:54:55.195Z,70.10
2019-03-10T11:57:35.831Z,70.32
2019-03-10T12:00:16.406Z,70.89
2019-03-10T12:02:58.130Z,70.52
2019-03-10T12:05:38.930Z,70.12
2019-03-10T12:08:19.152Z,70.46
2019-03-10T12:10:59.892Z,70.55
2019-03-10T12:13:40.642Z,70.61
2019-03-10T12:16:21.785Z,70.94
2019-03-10T12:19:02.726Z,71.32
2019-03-10T12:21:43.730Z,71.72
2019-03-10T12:24:24.697Z,71.99
2019-03-10T12:27:05.500Z,72.09
2019-03-10T12:29:46.316Z,72.66
2019-03-10T12:32:27.122Z,73.11
2019-03-10T12:35:08.147Z,73.91
2019-03-10T12:37:49.056Z,75.02
2019-03-10T12:40:30.130Z,75.19
2019-03-10T12:43:11.109Z,76.13
2019-03-10T12:45:51.638Z,77.04
2019-03-10T12:48:32.450Z,77.11
2019-03-10T12:51:13.977Z,77.81
2019-03-10T12:53:54.961Z,78.07
2019-03-10T12:56:35.441Z,78.42
2019-03-10T12:59:16.841Z,79.65
2019-03-10T13:01:58.035Z,79.37
2019-03-10T13:04:38.754Z,79.61
2019-03-10T13:07:19.493Z,80.02
2019-03-10T13:10:00.030Z,80.67
2019-03-10T13:12:40.003Z,80.73
2019-03-10T13:15:23.948Z,81.15
2019-03-10T13:18:04.160Z,80.57
2019-03-10T13:20:45.208Z,81.15
2019-03-10T13:23:25.909Z,80.69
2019-03-10T13:26:06.183Z,81.66
2019-03-10T13:28:46.158Z,81.02
2019-03-10T13:31:26.619Z,81.66
2019-03-10T13:34:07.113Z,81.49
2019-03-10T13:36:47.062Z,80.96
2019-03-10T13:39:28.280Z,81.91
2019-03-10T13:42:08.353Z,81.37
2019-03-10T13:44:48.235Z,81.92
2019-03-10T13:47:28.181Z,81.49
2019-03-10T13:50:08.301Z,81.29
2019-03-10T13:52:48.912Z,81.46
2019-03-10T13:55:28.706Z,81.78
2019-03-10T13:58:09.950Z,81.23
2019-03-10T14:00:50.158Z,81.21
2019-03-10T14:03:30.588Z,80.61
2019-03-10T14:06:10.706Z,80.54
2019-03-10T14:08:50.919Z,80.61
2019-03-10T14:11:31.169Z,80.34
2019-03-10T14:14:11.405Z,81.50
2019-03-10T14:16:51.495Z,81.63
2019-03-10T14:19:31.666Z,81.88
2019-03-10T14:22:11.970Z,81.66
2019-03-10T14:24:52.310Z,82.32
2019-03-10T14:27:33.293Z,82.91
2019-03-10T14:30:13.567Z,83.48
2019-03-10T14:32:53.807Z,83.57
2019-03-10T14:35:33.996Z,83.53
2019-03-10T14:38:14.735Z,84.03
2019-03-10T14:40:55.379Z,84.26
2019-03-10T14:43:36.160Z,84.42
2019-03-10T14:46:16.415Z,84.41
2019-03-10T14:48:57.382Z,83.67
2019-03-10T14:51:37.716Z,83.53
2019-03-10T14:54:18.817Z,83.36
2019-03-10T14:57:02.420Z,82.78
2019-03-10T14:59:40.389Z,84.09
2019-03-10T15:02:20.519Z,85.01
2019-03-10T15:05:00.668Z,84.52
2019-03-10T15:07:40.691Z,84.21
2019-03-10T15:10:20.734Z,85.29
2019-03-10T15:13:00.587Z,85.69
2019-03-10T15:15:41.253Z,86.02
2019-03-10T15:18:21.633Z,86.21
2019-03-10T15:21:02.132Z,87.00
2019-03-10T15:23:42.498Z,87.10
2019-03-10T15:26:23.151Z,86.97
2019-03-10T15:29:03.504Z,87.01
2019-03-10T15:31:43.711Z,87.46
2019-03-10T15:34:23.936Z,87.30
2019-03-10T15:37:04.808Z,87.66
2019-03-10T15:39:45.193Z,88.49
2019-03-10T15:42:25.144Z,87.97
2019-03-10T15:45:08.640Z,88.05
2019-03-10T15:47:49.790Z,88.68
2019-03-10T15:50:29.983Z,88.74
2019-03-10T15:53:10.694Z,88.41
2019-03-10T15:55:51.017Z,88.47
2019-03-10T15:58:31.362Z,88.75
2019-03-10T16:01:11.146Z,88.96
2019-03-10T16:03:51.175Z,89.03
2019-03-10T16:06:31.455Z,89.30
2019-03-10T16:09:11.640Z,89.23
2019-03-10T16:11:52.123Z,89.19
2019-03-10T16:14:32.471Z,89.63
2019-03-10T16:17:12.503Z,89.30
2019-03-10T16:19:52.563Z,89.38
2019-03-10T16:22:34.735Z,89.53
2019-03-10T16:25:13.891Z,90.02
2019-03-10T16:27:54.534Z,90.33
2019-03-10T16:30:40.435Z,90.37
2019-03-10T16:33:26.977Z,89.81
2019-03-10T16:36:16.830Z,90.40
2019-03-10T16:39:03.892Z,90.62
2019-03-10T16:41:53.470Z,90.25
2019-03-10T16:44:37.002Z,91.15
2019-03-10T16:47:18.463Z,90.94
2019-03-10T16:49:58.725Z,90.87
2019-03-10T16:52:39.931Z,91.22
2019-03-10T16:55:22.334Z,91.47
2019-03-10T16:58:06.399Z,91.59
2019-03-10T17:00:47.921Z,92.19
2019-03-10T17:03:32.708Z,91.57
2019-03-10T17:06:16.514Z,91.67
2019-03-10T17:09:04.789Z,92.31
2019-03-10T17:11:50.413Z,92.26
2019-03-10T17:14:37.360Z,91.76
2019-03-10T17:17:24.440Z,91.63
2019-03-10T17:20:06.021Z,91.61
2019-03-10T17:22:46.559Z,91.91
2019-03-10T17:25:26.581Z,91.90
2019-03-10T17:28:11.075Z,92.36
2019-03-10T17:30:55.227Z,92.50
2019-03-10T17:33:38.613Z,92.24
2019-03-10T17:36:25.145Z,92.12
2019-03-10T17:39:12.839Z,92.15
2019-03-10T17:41:59.140Z,92.45
2019-03-10T17:44:47.099Z,92.17
2019-03-10T17:50:21.126Z,91.86
2019-03-10T17:53:07.803Z,91.82
2019-03-10T17:55:55.263Z,91.93
2019-03-10T17:58:43.276Z,91.30
2019-03-10T18:01:28.292Z,91.85
2019-03-10T18:04:14.423Z,92.45
2019-03-10T18:06:59.443Z,92.61
2019-03-10T18:09:48.165Z,92.73
2019-03-10T18:12:36.238Z,92.75
2019-03-10T18:15:24.588Z,92.25
2019-03-10T18:20:52.913Z,92.43
2019-03-10T18:23:34.170Z,93.04
2019-03-10T18:26:14.882Z,93.21
2019-03-10T18:28:57.931Z,93.04
2019-03-10T18:37:04.540Z,92.15
2019-03-10T18:39:48.316Z,91.88
2019-03-10T18:45:12.511Z,92.09
2019-03-10T18:47:52.696Z,91.95
2019-03-10T18:50:33.853Z,92.21
2019-03-10T18:53:14.372Z,91.99
2019-03-10T18:55:54.989Z,92.04
2019-03-10T19:01:21.318Z,91.74
2019-03-10T19:04:01.357Z,91.90
2019-03-10T19:06:42.310Z,91.84
